sensor_id;sensor_type;location;lat;lon;timestamp;pressure;altitude;pressure_sealevel;temperature;humidity
61571;BME280;47463;49.884;10.010;2024-03-23T00:55:01;101110;;;9.5;68
61571;BME280;47463;49.884;10.010;2024-03-23T01:00:01;101100;;;9.4;69
61571;BME280;47463;49.884;10.010;2024-03-23T01:05:01;101100;;;9.4;69
61571;BME280;47463;49.884;10.010;2024-03-23T01:10:01;101080;;;9.6;69
61571;BME280;47463;49.884;10.010;2024-03-23T01:15:01;101080;;;9.3;69
61571;BME280;47463;49.884;10.010;2024-03-23T01:20:01;101060;;;9;70
61571;BME280;47463;49.884;10.010;2024-03-23T01:25:01;101060;;;9.1;70
61571;BME280;47463;49.884;10.010;2024-03-23T01:30:01;101060;;;9.4;70
61571;BME280;47463;49.884;10.010;2024-03-23T01:35:01;101050;;;9.5;69
61571;BME280;47463;49.884;10.010;2024-03-23T01:40:01;101040;;;9.7;68
61571;BME280;47463;49.884;10.010;2024-03-23T01:45:01;101020;;;9.2;69
61571;BME280;47463;49.884;10.010;2024-03-23T01:50:01;101010;;;8.9;71
61571;BME280;47463;49.884;10.010;2024-03-23T01:55:01;101000;;;9.2;70
61571;BME280;47463;49.884;10.010;2024-03-23T02:00:01;100990;;;9;70
61571;BME280;47463;49.884;10.010;2024-03-23T02:05:01;100990;;;8.8;71
61571;BME280;47463;49.884;10.010;2024-03-23T02:10:01;100970;;;9.1;71
61571;BME280;47463;49.884;10.010;2024-03-23T02:15:01;100970;;;9.4;69
61571;BME280;47463;49.884;10.010;2024-03-23T02:20:01;100960;;;9.3;69
61571;BME280;47463;49.884;10.010;2024-03-23T02:25:01;100950;;;9.4;70
61571;BME280;47463;49.884;10.010;2024-03-23T02:30:01;100940;;;9.5;69
61571;BME280;47463;49.884;10.010;2024-03-23T02:35:01;100940;;;9.4;69
61571;BME280;47463;49.884;10.010;2024-03-23T02:40:01;100920;;;9.4;69
61571;BME280;47463;49.884;10.010;2024-03-23T02:45:01;100910;;;9.4;69
61571;BME280;47463;49.884;10.010;2024-03-23T02:50:01;100900;;;9.2;70
61571;BME280;47463;49.884;10.010;2024-03-23T02:55:01;100900;;;9.2;71
61571;BME280;47463;49.884;10.010;2024-03-23T03:00:01;100880;;;9.3;71
61571;BME280;47463;49.884;10.010;2024-03-23T03:05:01;100880;;;9.3;71
61571;BME280;47463;49.884;10.010;2024-03-23T03:10:01;100860;;;9.3;71
61571;BME280;47463;49.884;10.010;2024-03-23T03:15:01;100840;;;9.4;70
61571;BME280;47463;49.884;10.010;2024-03-23T03:20:01;100850;;;9.2;71
61571;BME280;47463;49.884;10.010;2024-03-23T03:25:01;100850;;;9.3;71
61571;BME280;47463;49.884;10.010;2024-03-23T03:30:01;100830;;;9.3;70
61571;BME280;47463;49.884;10.010;2024-03-23T03:35:01;100810;;;9.3;71
61571;BME280;47463;49.884;10.010;2024-03-23T03:40:01;100810;;;9.4;71
61571;BME280;47463;49.884;10.010;2024-03-23T03:45:01;100810;;;9.5;71
61571;BME280;47463;49.884;10.010;2024-03-23T03:50:01;100810;;;9.8;70
61571;BME280;47463;49.884;10.010;2024-03-23T03:55:01;100820;;;10.1;70
61571;BME280;47463;49.884;10.010;2024-03-23T04:00:01;100820;;;10.2;70
61571;BME280;47463;49.884;10.010;2024-03-23T04:05:01;100810;;;10.2;70
61571;BME280;47463;49.884;10.010;2024-03-23T04:10:01;100810;;;10.1;71
61571;BME280;47463;49.884;10.010;2024-03-23T04:15:01;100800;;;10.1;71
61571;BME280;47463;49.884;10.010;2024-03-23T04:20:01;100790;;;10.1;71
61571;BME280;47463;49.884;10.010;2024-03-23T04:25:01;100780;;;9.9;72
61571;BME280;47463;49.884;10.010;2024-03-23T04:30:01;100770;;;9.6;73
61571;BME280;47463;49.884;10.010;2024-03-23T04:35:01;100760;;;9.5;74
61571;BME280;47463;49.884;10.010;2024-03-23T04:40:01;100760;;;9.5;74
61571;BME280;47463;49.884;10.010;2024-03-23T04:45:01;100740;;;9.5;74
61571;BME280;47463;49.884;10.010;2024-03-23T04:50:01;100740;;;9.5;74
61571;BME280;47463;49.884;10.010;2024-03-23T04:55:01;100730;;;9.6;74
61571;BME280;47463;49.884;10.010;2024-03-23T05:00:01;100740;;;9.5;74
61571;BME280;47463;49.884;10.010;2024-03-23T05:05:01;100740;;;9.5;74
61571;BME280;47463;49.884;10.010;2024-03-23T05:10:01;100730;;;9.4;74
61571;BME280;47463;49.884;10.010;2024-03-23T05:15:01;100720;;;9.4;74
61571;BME280;47463;49.884;10.010;2024-03-23T05:20:01;100730;;;9.3;75
61571;BME280;47463;49.884;10.010;2024-03-23T05:25:01;100710;;;9.2;75
61571;BME280;47463;49.884;10.010;2024-03-23T05:30:01;100710;;;9.4;75
61571;BME280;47463;49.884;10.010;2024-03-23T05:35:01;100690;;;9.8;74
61571;BME280;47463;49.884;10.010;2024-03-23T05:40:01;100710;;;9.9;72
61571;BME280;47463;49.884;10.010;2024-03-23T05:45:01;100710;;;9.9;72
61571;BME280;47463;49.884;10.010;2024-03-23T05:50:01;100710;;;10;72
61571;BME280;47463;49.884;10.010;2024-03-23T05:55:01;100700;;;10.1;71
61571;BME280;47463;49.884;10.010;2024-03-23T06:00:01;100710;;;10.1;70
61571;BME280;47463;49.884;10.010;2024-03-23T06:05:01;100700;;;10.4;68
61571;BME280;47463;49.884;10.010;2024-03-23T06:10:01;100720;;;10.4;67
61571;BME280;47463;49.884;10.010;2024-03-23T06:15:01;100740;;;10.5;67
61571;BME280;47463;49.884;10.010;2024-03-23T06:20:01;100740;;;10.3;68
61571;BME280;47463;49.884;10.010;2024-03-23T06:25:01;100750;;;9.6;71
61571;BME280;47463;49.884;10.010;2024-03-23T06:30:01;100760;;;9.2;73
61571;BME280;47463;49.884;10.010;2024-03-23T06:35:01;100770;;;8.9;75
61571;BME280;47463;49.884;10.010;2024-03-23T06:40:01;100800;;;8.7;75
61571;BME280;47463;49.884;10.010;2024-03-23T06:45:01;100820;;;8.5;75
61571;BME280;47463;49.884;10.010;2024-03-23T06:50:02;100820;;;8.5;75
61571;BME280;47463;49.884;10.010;2024-03-23T06:55:01;100840;;;8.4;75
61571;BME280;47463;49.884;10.010;2024-03-23T07:00:01;100840;;;8.3;75
61571;BME280;47463;49.884;10.010;2024-03-23T07:05:01;100850;;;8;75
61571;BME280;47463;49.884;10.010;2024-03-23T07:10:01;100860;;;7.8;75
61571;BME280;47463;49.884;10.010;2024-03-23T07:15:01;100870;;;7.7;75
61571;BME280;47463;49.884;10.010;2024-03-23T07:20:01;100880;;;7.5;75
61571;BME280;47463;49.884;10.010;2024-03-23T07:25:01;100920;;;7;76
61571;BME280;47463;49.884;10.010;2024-03-23T07:30:01;100940;;;6.8;76
61571;BME280;47463;49.884;10.010;2024-03-23T07:35:01;100960;;;6.6;77
61571;BME280;47463;49.884;10.010;2024-03-23T07:40:01;100960;;;6.6;77
61571;BME280;47463;49.884;10.010;2024-03-23T07:45:01;100990;;;6.5;77
61571;BME280;47463;49.884;10.010;2024-03-23T07:50:01;101010;;;6.4;76
61571;BME280;47463;49.884;10.010;2024-03-23T07:55:01;101040;;;6.3;77
61571;BME280;47463;49.884;10.010;2024-03-23T08:00:01;101070;;;6;77
61571;BME280;47463;49.884;10.010;2024-03-23T08:05:01;101080;;;5.9;77
61571;BME280;47463;49.884;10.010;2024-03-23T08:10:01;101100;;;5.9;76
61571;BME280;47463;49.884;10.010;2024-03-23T08:15:01;101110;;;6;74
61571;BME280;47463;49.884;10.010;2024-03-23T08:20:01;101110;;;6.1;75
61571;BME280;47463;49.884;10.010;2024-03-23T08:25:01;101120;;;6.2;75
61571;BME280;47463;49.884;10.010;2024-03-23T08:30:01;101160;;;6.3;74
61571;BME280;47463;49.884;10.010;2024-03-23T08:35:01;101180;;;6.6;75
61571;BME280;47463;49.884;10.010;2024-03-23T08:40:01;101180;;;6.6;74
61571;BME280;47463;49.884;10.010;2024-03-23T08:45:01;101190;;;6.7;74
61571;BME280;47463;49.884;10.010;2024-03-23T08:50:01;101200;;;6.6;75
61571;BME280;47463;49.884;10.010;2024-03-23T08:55:01;101220;;;6.6;74
61571;BME280;47463;49.884;10.010;2024-03-23T09:00:01;101230;;;6.6;72
61571;BME280;47463;49.884;10.010;2024-03-23T09:05:01;101250;;;6.6;70
61571;BME280;47463;49.884;10.010;2024-03-23T09:10:01;101250;;;6.8;70
61571;BME280;47463;49.884;10.010;2024-03-23T09:15:01;101270;;;7.2;68
61571;BME280;47463;49.884;10.010;2024-03-23T09:20:01;101270;;;7.1;68
61571;BME280;47463;49.884;10.010;2024-03-23T09:25:01;101280;;;7.2;68
61571;BME280;47463;49.884;10.010;2024-03-23T09:30:01;101290;;;7.1;68
61571;BME280;47463;49.884;10.010;2024-03-23T09:35:01;101300;;;7.2;67
61571;BME280;47463;49.884;10.010;2024-03-23T09:40:01;101310;;;7.4;66
61571;BME280;47463;49.884;10.010;2024-03-23T09:45:01;101310;;;7;67
61571;BME280;47463;49.884;10.010;2024-03-23T09:50:01;101310;;;7;66
61571;BME280;47463;49.884;10.010;2024-03-23T09:55:01;101330;;;7.4;65
61571;BME280;47463;49.884;10.010;2024-03-23T10:00:01;101330;;;7.7;65
61571;BME280;47463;49.884;10.010;2024-03-23T10:05:01;101330;;;8;63
61571;BME280;47463;49.884;10.010;2024-03-23T10:10:05;101320;;;7.9;61
61571;BME280;47463;49.884;10.010;2024-03-23T10:15:01;101320;;;7.9;61
61571;BME280;47463;49.884;10.010;2024-03-23T10:20:01;101320;;;8.2;61
61571;BME280;47463;49.884;10.010;2024-03-23T10:25:06;101320;;;7.6;59
61571;BME280;47463;49.884;10.010;2024-03-23T10:30:07;101330;;;8;59
61571;BME280;47463;49.884;10.010;2024-03-23T10:35:13;101330;;;7.9;60
61571;BME280;47463;49.884;10.010;2024-03-23T10:40:01;101340;;;7.8;61
61571;BME280;47463;49.884;10.010;2024-03-23T10:45:01;101340;;;7.5;61
61571;BME280;47463;49.884;10.010;2024-03-23T10:50:01;101350;;;8;59
61571;BME280;47463;49.884;10.010;2024-03-23T10:55:01;101350;;;8.1;57
61571;BME280;47463;49.884;10.010;2024-03-23T11:00:02;101320;;;8.4;56
61571;BME280;47463;49.884;10.010;2024-03-23T11:05:01;101310;;;8.5;56
61571;BME280;47463;49.884;10.010;2024-03-23T11:10:01;101310;;;8.3;54
61571;BME280;47463;49.884;10.010;2024-03-23T11:15:01;101320;;;7.9;54
61571;BME280;47463;49.884;10.010;2024-03-23T11:20:01;101330;;;8;55
61571;BME280;47463;49.884;10.010;2024-03-23T11:25:01;101330;;;7.9;54
61571;BME280;47463;49.884;10.010;2024-03-23T11:30:09;101330;;;8;54
61571;BME280;47463;49.884;10.010;2024-03-23T11:35:01;101320;;;7.9;54
61571;BME280;47463;49.884;10.010;2024-03-23T11:40:01;101330;;;7.8;53
61571;BME280;47463;49.884;10.010;2024-03-23T11:45:06;101330;;;7.9;52
61571;BME280;47463;49.884;10.010;2024-03-23T11:50:01;101310;;;8.1;52
61571;BME280;47463;49.884;10.010;2024-03-23T11:55:03;101310;;;8.2;52
61571;BME280;47463;49.884;10.010;2024-03-23T12:00:01;101310;;;8.2;51
61571;BME280;47463;49.884;10.010;2024-03-23T12:05:13;101300;;;8.3;52
61571;BME280;47463;49.884;10.010;2024-03-23T12:10:03;101290;;;8.6;52
61571;BME280;47463;49.884;10.010;2024-03-23T12:15:01;101290;;;8.6;51
61571;BME280;47463;49.884;10.010;2024-03-23T12:20:01;101290;;;9;50
61571;BME280;47463;49.884;10.010;2024-03-23T12:25:01;101280;;;9.1;49
61571;BME280;47463;49.884;10.010;2024-03-23T12:30:01;101270;;;9.1;49
61571;BME280;47463;49.884;10.010;2024-03-23T12:35:01;101310;;;6.7;58
61571;BME280;47463;49.884;10.010;2024-03-23T12:40:01;101310;;;6.3;62
61571;BME280;47463;49.884;10.010;2024-03-23T12:45:01;101340;;;6.1;63
61571;BME280;47463;49.884;10.010;2024-03-23T12:50:01;101330;;;6.1;63
61571;BME280;47463;49.884;10.010;2024-03-23T12:55:01;101340;;;5.9;66
61571;BME280;47463;49.884;10.010;2024-03-23T13:00:01;101350;;;6;67
61571;BME280;47463;49.884;10.010;2024-03-23T13:05:01;101350;;;6.2;67
61571;BME280;47463;49.884;10.010;2024-03-23T13:10:01;101330;;;6.9;65
61571;BME280;47463;49.884;10.010;2024-03-23T13:15:01;101330;;;7.4;64
61571;BME280;47463;49.884;10.010;2024-03-23T13:20:01;101320;;;7.8;61
61571;BME280;47463;49.884;10.010;2024-03-23T13:25:01;101310;;;7.6;60
61571;BME280;47463;49.884;10.010;2024-03-23T13:30:01;101310;;;8;58
61571;BME280;47463;49.884;10.010;2024-03-23T13:35:01;101300;;;8.1;56
61571;BME280;47463;49.884;10.010;2024-03-23T13:40:01;101300;;;8.1;55
61571;BME280;47463;49.884;10.010;2024-03-23T13:45:01;101280;;;8.1;55
61571;BME280;47463;49.884;10.010;2024-03-23T13:50:01;101280;;;8.4;54
61571;BME280;47463;49.884;10.010;2024-03-23T13:55:01;101280;;;8.1;51
61571;BME280;47463;49.884;10.010;2024-03-23T14:00:01;101260;;;8.3;50
61571;BME280;47463;49.884;10.010;2024-03-23T14:05:01;101260;;;8.7;50
61571;BME280;47463;49.884;10.010;2024-03-23T14:10:02;101260;;;8.6;50
61571;BME280;47463;49.884;10.010;2024-03-23T14:15:01;101250;;;8.5;51
61571;BME280;47463;49.884;10.010;2024-03-23T14:20:01;101260;;;8.5;51
61571;BME280;47463;49.884;10.010;2024-03-23T14:25:01;101240;;;8.6;52
61571;BME280;47463;49.884;10.010;2024-03-23T14:30:01;101240;;;8.9;52
61571;BME280;47463;49.884;10.010;2024-03-23T14:35:01;101220;;;9.1;51
61571;BME280;47463;49.884;10.010;2024-03-23T14:40:01;101220;;;8.9;51
61571;BME280;47463;49.884;10.010;2024-03-23T14:45:01;101210;;;8.8;51
61571;BME280;47463;49.884;10.010;2024-03-23T14:50:01;101220;;;8.7;51
61571;BME280;47463;49.884;10.010;2024-03-23T14:55:01;101210;;;8.3;52
61571;BME280;47463;49.884;10.010;2024-03-23T15:00:01;101220;;;8;52
61571;BME280;47463;49.884;10.010;2024-03-23T15:05:01;101220;;;7.5;53
61571;BME280;47463;49.884;10.010;2024-03-23T15:10:01;101230;;;7.6;53
61571;BME280;47463;49.884;10.010;2024-03-23T15:15:01;101220;;;7.2;55
61571;BME280;47463;49.884;10.010;2024-03-23T15:20:01;101230;;;6.8;58
61571;BME280;47463;49.884;10.010;2024-03-23T15:25:01;101250;;;6.6;60
61571;BME280;47463;49.884;10.010;2024-03-23T15:30:01;101250;;;6.6;60
61571;BME280;47463;49.884;10.010;2024-03-23T15:35:01;101260;;;6;65
61571;BME280;47463;49.884;10.010;2024-03-23T15:40:01;101260;;;6.1;65
61571;BME280;47463;49.884;10.010;2024-03-23T15:45:01;101250;;;5.8;66
61571;BME280;47463;49.884;10.010;2024-03-23T15:50:01;101250;;;6;66
61571;BME280;47463;49.884;10.010;2024-03-23T15:55:01;101240;;;6.3;65
61571;BME280;47463;49.884;10.010;2024-03-23T16:00:01;101240;;;6.5;63
61571;BME280;47463;49.884;10.010;2024-03-23T16:05:01;101230;;;6.8;63
61571;BME280;47463;49.884;10.010;2024-03-23T16:10:01;101240;;;6.9;62
61571;BME280;47463;49.884;10.010;2024-03-23T16:15:01;101230;;;7.2;61
61571;BME280;47463;49.884;10.010;2024-03-23T16:20:02;101230;;;7.1;60
61571;BME280;47463;49.884;10.010;2024-03-23T16:25:01;101230;;;7;59
61571;BME280;47463;49.884;10.010;2024-03-23T16:30:01;101210;;;7;59
61571;BME280;47463;49.884;10.010;2024-03-23T16:35:01;101210;;;7;59
61571;BME280;47463;49.884;10.010;2024-03-23T16:40:01;101210;;;6.8;59
61571;BME280;47463;49.884;10.010;2024-03-23T16:45:01;101210;;;6.7;60
61571;BME280;47463;49.884;10.010;2024-03-23T16:50:01;101210;;;6.6;60
61571;BME280;47463;49.884;10.010;2024-03-23T16:55:01;101220;;;6.5;61
61571;BME280;47463;49.884;10.010;2024-03-23T17:00:01;101210;;;6.4;61
61571;BME280;47463;49.884;10.010;2024-03-23T17:05:01;101200;;;6.3;61
61571;BME280;47463;49.884;10.010;2024-03-23T17:10:01;100900;;;6.2;63
61571;BME280;47463;49.884;10.010;2024-03-23T17:15:03;101230;;;6;63
61571;BME280;47463;49.884;10.010;2024-03-23T17:20:01;101230;;;5.5;67
61571;BME280;47463;49.884;10.010;2024-03-23T17:25:01;101240;;;5.3;67
61571;BME280;47463;49.884;10.010;2024-03-23T17:30:01;101240;;;5;69
61571;BME280;47463;49.884;10.010;2024-03-23T17:35:01;101240;;;4.8;69
61571;BME280;47463;49.884;10.010;2024-03-23T17:40:01;101230;;;4.7;69
61571;BME280;47463;49.884;10.010;2024-03-23T17:45:01;101240;;;4.6;70
61571;BME280;47463;49.884;10.010;2024-03-23T17:50:01;101250;;;4.5;70
61571;BME280;47463;49.884;10.010;2024-03-23T17:55:01;101260;;;4.3;71
61571;BME280;47463;49.884;10.010;2024-03-23T18:00:01;101260;;;4.3;71
61571;BME280;47463;49.884;10.010;2024-03-23T18:05:01;101250;;;4.2;71
61571;BME280;47463;49.884;10.010;2024-03-23T18:10:01;101250;;;4.1;72
61571;BME280;47463;49.884;10.010;2024-03-23T18:15:01;101250;;;4.1;72
61571;BME280;47463;49.884;10.010;2024-03-23T18:20:01;101270;;;4;73
61571;BME280;47463;49.884;10.010;2024-03-23T18:25:01;101270;;;3.9;73
61571;BME280;47463;49.884;10.010;2024-03-23T18:30:01;101280;;;4;73
61571;BME280;47463;49.884;10.010;2024-03-23T18:35:01;101280;;;3.9;73
61571;BME280;47463;49.884;10.010;2024-03-23T18:40:01;101260;;;3.8;74
61571;BME280;47463;49.884;10.010;2024-03-23T18:45:01;101260;;;3.7;74
61571;BME280;47463;49.884;10.010;2024-03-23T18:50:01;101250;;;3.6;74
61571;BME280;47463;49.884;10.010;2024-03-23T18:55:01;101250;;;3.7;74
61571;BME280;47463;49.884;10.010;2024-03-23T19:00:01;101250;;;3.6;73
61571;BME280;47463;49.884;10.010;2024-03-23T19:05:01;101240;;;3.6;73
61571;BME280;47463;49.884;10.010;2024-03-23T19:10:01;101240;;;3.6;73
61571;BME280;47463;49.884;10.010;2024-03-23T19:15:01;101240;;;3.6;73
61571;BME280;47463;49.884;10.010;2024-03-23T19:20:01;101230;;;3.6;73
61571;BME280;47463;49.884;10.010;2024-03-23T19:25:01;101230;;;3.5;73
61571;BME280;47463;49.884;10.010;2024-03-23T19:30:01;101230;;;3.5;73
61571;BME280;47463;49.884;10.010;2024-03-23T19:35:01;101240;;;3.4;73
61571;BME280;47463;49.884;10.010;2024-03-23T19:40:01;101250;;;3.3;73
61571;BME280;47463;49.884;10.010;2024-03-23T19:45:01;101270;;;3.2;74
61571;BME280;47463;49.884;10.010;2024-03-23T19:50:01;101270;;;3.4;74
61571;BME280;47463;49.884;10.010;2024-03-23T19:55:01;101260;;;3.4;74
61571;BME280;47463;49.884;10.010;2024-03-23T20:00:01;101280;;;3.5;74
61571;BME280;47463;49.884;10.010;2024-03-23T20:05:01;101270;;;3.6;74
61571;BME280;47463;49.884;10.010;2024-03-23T20:10:01;101270;;;3.7;74
61571;BME280;47463;49.884;10.010;2024-03-23T20:15:01;101250;;;3.7;74
61571;BME280;47463;49.884;10.010;2024-03-23T20:20:01;101240;;;3.6;74
61571;BME280;47463;49.884;10.010;2024-03-23T20:25:01;101260;;;3.6;75
61571;BME280;47463;49.884;10.010;2024-03-23T20:30:01;101260;;;3.7;75
61571;BME280;47463;49.884;10.010;2024-03-23T20:35:01;100900;;;3.8;75
61571;BME280;47463;49.884;10.010;2024-03-23T20:40:01;101260;;;3.8;75
61571;BME280;47463;49.884;10.010;2024-03-23T20:45:01;101260;;;3.8;75
61571;BME280;47463;49.884;10.010;2024-03-23T20:50:01;101270;;;3.8;75
61571;BME280;47463;49.884;10.010;2024-03-23T20:55:01;101270;;;3.8;75
61571;BME280;47463;49.884;10.010;2024-03-23T21:00:01;101260;;;3.8;75
61571;BME280;47463;49.884;10.010;2024-03-23T21:05:01;101280;;;3.8;75
61571;BME280;47463;49.884;10.010;2024-03-23T21:10:01;100990;;;3.8;75
61571;BME280;47463;49.884;10.010;2024-03-23T21:15:01;101280;;;3.7;75
61571;BME280;47463;49.884;10.010;2024-03-23T21:20:01;101270;;;3.8;74
61571;BME280;47463;49.884;10.010;2024-03-23T21:25:01;101270;;;3.8;74
61571;BME280;47463;49.884;10.010;2024-03-23T21:30:01;101270;;;3.8;74
61571;BME280;47463;49.884;10.010;2024-03-23T21:35:01;101270;;;3.9;73
61571;BME280;47463;49.884;10.010;2024-03-23T21:40:01;101280;;;3.9;72
61571;BME280;47463;49.884;10.010;2024-03-23T21:45:01;101270;;;3.8;73
61571;BME280;47463;49.884;10.010;2024-03-23T21:50:01;101250;;;3.7;73
61571;BME280;47463;49.884;10.010;2024-03-23T21:55:01;101260;;;3.6;74
61571;BME280;47463;49.884;10.010;2024-03-23T22:00:01;101250;;;3.4;74
61571;BME280;47463;49.884;10.010;2024-03-23T22:05:01;101260;;;3.3;75
61571;BME280;47463;49.884;10.010;2024-03-23T22:10:01;101260;;;3.2;75
61571;BME280;47463;49.884;10.010;2024-03-23T22:15:01;101250;;;3.1;76
61571;BME280;47463;49.884;10.010;2024-03-23T22:20:01;101260;;;3;76
61571;BME280;47463;49.884;10.010;2024-03-23T22:25:01;101260;;;3;76
61571;BME280;47463;49.884;10.010;2024-03-23T22:30:01;101250;;;2.8;76
61571;BME280;47463;49.884;10.010;2024-03-23T22:35:01;101260;;;2.8;76
61571;BME280;47463;49.884;10.010;2024-03-23T22:40:01;101250;;;2.7;77
61571;BME280;47463;49.884;10.010;2024-03-23T22:45:01;101250;;;2.7;77
61571;BME280;47463;49.884;10.010;2024-03-23T22:50:01;101240;;;2.6;78
61571;BME280;47463;49.884;10.010;2024-03-23T22:55:01;101250;;;2.6;78
61571;BME280;47463;49.884;10.010;2024-03-23T23:00:01;101240;;;2.5;77
61571;BME280;47463;49.884;10.010;2024-03-23T23:05:01;101240;;;2.4;78
61571;BME280;47463;49.884;10.010;2024-03-23T23:10:01;101230;;;2.3;78
61571;BME280;47463;49.884;10.010;2024-03-23T23:15:01;101240;;;2.3;78
61571;BME280;47463;49.884;10.010;2024-03-23T23:20:01;101230;;;2.2;78
61571;BME280;47463;49.884;10.010;2024-03-23T23:25:01;101210;;;2;78
61571;BME280;47463;49.884;10.010;2024-03-23T23:30:01;101220;;;1.9;79
61571;BME280;47463;49.884;10.010;2024-03-23T23:35:01;101220;;;1.8;79
61571;BME280;47463;49.884;10.010;2024-03-23T23:40:01;101210;;;1.7;79
61571;BME280;47463;49.884;10.010;2024-03-23T23:45:01;101210;;;1.7;80
61571;BME280;47463;49.884;10.010;2024-03-23T23:50:01;101210;;;1.7;80
61571;BME280;47463;49.884;10.010;2024-03-23T23:55:01;101200;;;1.9;80
